Howellville, Texas
Current Conditions -  °F | °C
As of 10:53 PM on Tuesday 25 Nov 2014 (Local Time) from KSGR Reporting Station
Clear Clear  
Wind Chill: 44°   Ceiling: Unl
Heat Index: 47°   Visibility: 10mi
Dew Point: 38°   Wind: 6mph
Humidity: 71%   Direction: 190°S
Pressure: 30.24"   Gusts: NA
Location:  29.7106°N, 95.5963°W
Report Text: KSGR 260453Z 19005KT 10SM CLR 08/03 A3024 RMK AO2 SLP243 T00830033
Loading
Personal Weather Stations






























Interactive Weather Map New forecast layout! Learn more

10-Day Weather Forecast

Advertisements
Track Severe Weather on mobile